sensor_id;sensor_type;location;lat;lon;timestamp;P1;durP1;ratioP1;P2;durP2;ratioP2
1380;SDS011;684;48.342;10.096;2023-04-06T00:00:05;13.70;;;9.03;;
1380;SDS011;684;48.342;10.096;2023-04-06T00:02:34;11.40;;;7.90;;
1380;SDS011;684;48.342;10.096;2023-04-06T00:05:01;14.60;;;9.17;;
1380;SDS011;684;48.342;10.096;2023-04-06T00:07:27;10.80;;;7.73;;
1380;SDS011;684;48.342;10.096;2023-04-06T00:09:55;12.77;;;8.13;;
1380;SDS011;684;48.342;10.096;2023-04-06T00:12:21;13.50;;;8.40;;
1380;SDS011;684;48.342;10.096;2023-04-06T00:14:49;15.23;;;8.80;;
1380;SDS011;684;48.342;10.096;2023-04-06T00:17:17;10.77;;;7.90;;
1380;SDS011;684;48.342;10.096;2023-04-06T00:19:44;11.83;;;8.33;;
1380;SDS011;684;48.342;10.096;2023-04-06T00:22:11;12.47;;;8.63;;
1380;SDS011;684;48.342;10.096;2023-04-06T00:24:38;11.83;;;8.67;;
1380;SDS011;684;48.342;10.096;2023-04-06T00:27:05;12.73;;;9.90;;
1380;SDS011;684;48.342;10.096;2023-04-06T00:29:31;13.73;;;9.53;;
1380;SDS011;684;48.342;10.096;2023-04-06T00:31:59;15.27;;;10.27;;
1380;SDS011;684;48.342;10.096;2023-04-06T00:34:26;14.60;;;9.47;;
1380;SDS011;684;48.342;10.096;2023-04-06T00:36:53;15.07;;;10.83;;
1380;SDS011;684;48.342;10.096;2023-04-06T00:39:20;14.37;;;9.83;;
1380;SDS011;684;48.342;10.096;2023-04-06T00:41:48;12.97;;;9.70;;
1380;SDS011;684;48.342;10.096;2023-04-06T00:44:17;15.97;;;11.53;;
1380;SDS011;684;48.342;10.096;2023-04-06T00:46:44;18.50;;;11.00;;
1380;SDS011;684;48.342;10.096;2023-04-06T00:49:12;15.20;;;11.63;;
1380;SDS011;684;48.342;10.096;2023-04-06T00:51:39;15.17;;;11.37;;
1380;SDS011;684;48.342;10.096;2023-04-06T00:54:06;18.40;;;12.50;;
1380;SDS011;684;48.342;10.096;2023-04-06T00:56:33;17.07;;;12.50;;
1380;SDS011;684;48.342;10.096;2023-04-06T00:59:01;20.70;;;13.23;;
1380;SDS011;684;48.342;10.096;2023-04-06T01:01:28;18.83;;;12.37;;
1380;SDS011;684;48.342;10.096;2023-04-06T01:03:57;17.93;;;13.43;;
1380;SDS011;684;48.342;10.096;2023-04-06T01:06:25;17.10;;;12.47;;
1380;SDS011;684;48.342;10.096;2023-04-06T01:08:52;16.80;;;12.70;;
1380;SDS011;684;48.342;10.096;2023-04-06T01:11:19;17.93;;;12.63;;
1380;SDS011;684;48.342;10.096;2023-04-06T01:13:46;20.50;;;13.07;;
1380;SDS011;684;48.342;10.096;2023-04-06T01:16:13;19.80;;;13.57;;
1380;SDS011;684;48.342;10.096;2023-04-06T01:18:40;19.77;;;13.77;;
1380;SDS011;684;48.342;10.096;2023-04-06T01:21:07;20.57;;;14.17;;
1380;SDS011;684;48.342;10.096;2023-04-06T01:23:41;16.93;;;12.77;;
1380;SDS011;684;48.342;10.096;2023-04-06T01:26:08;19.03;;;13.53;;
1380;SDS011;684;48.342;10.096;2023-04-06T01:28:35;17.50;;;12.20;;
1380;SDS011;684;48.342;10.096;2023-04-06T01:31:03;20.47;;;13.20;;
1380;SDS011;684;48.342;10.096;2023-04-06T01:33:30;18.20;;;12.87;;
1380;SDS011;684;48.342;10.096;2023-04-06T01:35:57;17.80;;;13.17;;
1380;SDS011;684;48.342;10.096;2023-04-06T01:38:24;17.63;;;11.23;;
1380;SDS011;684;48.342;10.096;2023-04-06T01:40:53;17.30;;;12.57;;
1380;SDS011;684;48.342;10.096;2023-04-06T01:43:20;19.13;;;13.07;;
1380;SDS011;684;48.342;10.096;2023-04-06T01:45:46;20.13;;;13.00;;
1380;SDS011;684;48.342;10.096;2023-04-06T01:48:13;20.13;;;12.97;;
1380;SDS011;684;48.342;10.096;2023-04-06T01:50:40;15.93;;;11.80;;
1380;SDS011;684;48.342;10.096;2023-04-06T01:53:07;17.20;;;12.33;;
1380;SDS011;684;48.342;10.096;2023-04-06T01:55:34;17.90;;;11.60;;
1380;SDS011;684;48.342;10.096;2023-04-06T01:58:02;15.57;;;11.80;;
1380;SDS011;684;48.342;10.096;2023-04-06T02:00:28;16.67;;;12.30;;
1380;SDS011;684;48.342;10.096;2023-04-06T02:02:55;14.00;;;10.37;;
1380;SDS011;684;48.342;10.096;2023-04-06T02:05:22;16.67;;;11.23;;
1380;SDS011;684;48.342;10.096;2023-04-06T02:07:49;19.07;;;10.97;;
1380;SDS011;684;48.342;10.096;2023-04-06T02:10:16;15.87;;;11.10;;
1380;SDS011;684;48.342;10.096;2023-04-06T02:12:43;20.20;;;11.07;;
1380;SDS011;684;48.342;10.096;2023-04-06T02:15:11;17.10;;;11.53;;
1380;SDS011;684;48.342;10.096;2023-04-06T02:17:38;14.87;;;10.77;;
1380;SDS011;684;48.342;10.096;2023-04-06T02:20:05;20.33;;;10.90;;
1380;SDS011;684;48.342;10.096;2023-04-06T02:22:33;16.70;;;11.67;;
1380;SDS011;684;48.342;10.096;2023-04-06T02:25:00;18.17;;;11.00;;
1380;SDS011;684;48.342;10.096;2023-04-06T02:27:27;16.70;;;11.70;;
1380;SDS011;684;48.342;10.096;2023-04-06T02:29:54;19.43;;;12.13;;
1380;SDS011;684;48.342;10.096;2023-04-06T02:32:22;20.77;;;13.40;;
1380;SDS011;684;48.342;10.096;2023-04-06T02:34:49;19.60;;;11.83;;
1380;SDS011;684;48.342;10.096;2023-04-06T02:37:15;16.70;;;11.20;;
1380;SDS011;684;48.342;10.096;2023-04-06T02:39:42;20.33;;;12.30;;
1380;SDS011;684;48.342;10.096;2023-04-06T02:42:09;14.53;;;10.80;;
1380;SDS011;684;48.342;10.096;2023-04-06T02:44:36;16.37;;;12.53;;
1380;SDS011;684;48.342;10.096;2023-04-06T02:47:02;15.40;;;12.53;;
1380;SDS011;684;48.342;10.096;2023-04-06T02:49:30;15.77;;;11.10;;
1380;SDS011;684;48.342;10.096;2023-04-06T02:51:57;20.60;;;11.53;;
1380;SDS011;684;48.342;10.096;2023-04-06T02:54:24;15.37;;;10.80;;
1380;SDS011;684;48.342;10.096;2023-04-06T02:56:51;18.73;;;12.00;;
1380;SDS011;684;48.342;10.096;2023-04-06T02:59:17;18.63;;;11.40;;
1380;SDS011;684;48.342;10.096;2023-04-06T03:01:44;17.40;;;10.70;;
1380;SDS011;684;48.342;10.096;2023-04-06T03:04:11;15.10;;;10.80;;
1380;SDS011;684;48.342;10.096;2023-04-06T03:06:39;14.50;;;10.47;;
1380;SDS011;684;48.342;10.096;2023-04-06T03:09:06;14.43;;;10.70;;
1380;SDS011;684;48.342;10.096;2023-04-06T03:11:33;15.93;;;10.00;;
1380;SDS011;684;48.342;10.096;2023-04-06T03:13:59;15.97;;;11.80;;
1380;SDS011;684;48.342;10.096;2023-04-06T03:16:26;17.83;;;12.27;;
1380;SDS011;684;48.342;10.096;2023-04-06T03:18:53;17.50;;;10.80;;
1380;SDS011;684;48.342;10.096;2023-04-06T03:21:20;17.50;;;12.23;;
1380;SDS011;684;48.342;10.096;2023-04-06T03:23:48;18.23;;;12.07;;
1380;SDS011;684;48.342;10.096;2023-04-06T03:26:16;18.77;;;15.53;;
1380;SDS011;684;48.342;10.096;2023-04-06T03:28:42;14.93;;;11.23;;
1380;SDS011;684;48.342;10.096;2023-04-06T03:31:09;20.33;;;12.60;;
1380;SDS011;684;48.342;10.096;2023-04-06T03:33:36;15.90;;;11.77;;
1380;SDS011;684;48.342;10.096;2023-04-06T03:36:03;19.80;;;12.03;;
1380;SDS011;684;48.342;10.096;2023-04-06T03:38:30;17.10;;;11.83;;
1380;SDS011;684;48.342;10.096;2023-04-06T03:40:58;15.77;;;12.17;;
1380;SDS011;684;48.342;10.096;2023-04-06T03:43:25;16.30;;;11.53;;
1380;SDS011;684;48.342;10.096;2023-04-06T03:45:52;19.40;;;11.77;;
1380;SDS011;684;48.342;10.096;2023-04-06T03:48:19;18.80;;;12.03;;
1380;SDS011;684;48.342;10.096;2023-04-06T03:50:45;18.73;;;11.50;;
1380;SDS011;684;48.342;10.096;2023-04-06T03:53:12;17.30;;;12.13;;
1380;SDS011;684;48.342;10.096;2023-04-06T03:55:39;17.83;;;12.47;;
1380;SDS011;684;48.342;10.096;2023-04-06T03:58:07;18.20;;;13.03;;
1380;SDS011;684;48.342;10.096;2023-04-06T04:00:34;17.53;;;11.50;;
1380;SDS011;684;48.342;10.096;2023-04-06T04:03:01;28.93;;;13.67;;
1380;SDS011;684;48.342;10.096;2023-04-06T04:05:27;17.57;;;13.43;;
1380;SDS011;684;48.342;10.096;2023-04-06T04:07:54;18.93;;;13.27;;
1380;SDS011;684;48.342;10.096;2023-04-06T04:10:21;19.00;;;12.77;;
1380;SDS011;684;48.342;10.096;2023-04-06T04:12:48;17.60;;;12.33;;
1380;SDS011;684;48.342;10.096;2023-04-06T04:15:16;20.00;;;13.90;;
1380;SDS011;684;48.342;10.096;2023-04-06T04:17:43;20.43;;;13.30;;
1380;SDS011;684;48.342;10.096;2023-04-06T04:20:11;17.53;;;13.10;;
1380;SDS011;684;48.342;10.096;2023-04-06T04:22:38;19.53;;;12.93;;
1380;SDS011;684;48.342;10.096;2023-04-06T04:25:06;19.97;;;13.17;;
1380;SDS011;684;48.342;10.096;2023-04-06T04:27:34;18.83;;;13.30;;
1380;SDS011;684;48.342;10.096;2023-04-06T04:30:00;21.40;;;12.83;;
1380;SDS011;684;48.342;10.096;2023-04-06T04:32:29;18.17;;;13.10;;
1380;SDS011;684;48.342;10.096;2023-04-06T04:34:55;21.13;;;13.53;;
1380;SDS011;684;48.342;10.096;2023-04-06T04:37:22;18.40;;;14.20;;
1380;SDS011;684;48.342;10.096;2023-04-06T04:39:49;18.50;;;13.70;;
1380;SDS011;684;48.342;10.096;2023-04-06T04:42:16;20.73;;;12.83;;
1380;SDS011;684;48.342;10.096;2023-04-06T04:44:42;21.00;;;14.30;;
1380;SDS011;684;48.342;10.096;2023-04-06T04:47:09;21.00;;;13.93;;
1380;SDS011;684;48.342;10.096;2023-04-06T04:49:37;21.93;;;14.53;;
1380;SDS011;684;48.342;10.096;2023-04-06T04:52:04;17.77;;;14.03;;
1380;SDS011;684;48.342;10.096;2023-04-06T04:54:31;19.57;;;12.80;;
1380;SDS011;684;48.342;10.096;2023-04-06T04:56:57;20.30;;;14.23;;
1380;SDS011;684;48.342;10.096;2023-04-06T04:59:25;21.10;;;13.93;;
1380;SDS011;684;48.342;10.096;2023-04-06T05:01:51;17.70;;;12.03;;
1380;SDS011;684;48.342;10.096;2023-04-06T05:04:18;18.80;;;13.50;;
1380;SDS011;684;48.342;10.096;2023-04-06T05:06:47;20.70;;;14.03;;
1380;SDS011;684;48.342;10.096;2023-04-06T05:09:13;21.00;;;13.03;;
1380;SDS011;684;48.342;10.096;2023-04-06T05:11:40;18.67;;;13.10;;
1380;SDS011;684;48.342;10.096;2023-04-06T05:14:07;27.83;;;14.23;;
1380;SDS011;684;48.342;10.096;2023-04-06T05:16:34;17.67;;;11.90;;
1380;SDS011;684;48.342;10.096;2023-04-06T05:19:01;17.43;;;13.93;;
1380;SDS011;684;48.342;10.096;2023-04-06T05:21:27;18.67;;;13.90;;
1380;SDS011;684;48.342;10.096;2023-04-06T05:23:56;19.97;;;12.87;;
1380;SDS011;684;48.342;10.096;2023-04-06T05:26:23;23.03;;;14.50;;
1380;SDS011;684;48.342;10.096;2023-04-06T05:28:50;21.20;;;14.30;;
1380;SDS011;684;48.342;10.096;2023-04-06T05:31:17;18.90;;;12.50;;
1380;SDS011;684;48.342;10.096;2023-04-06T05:33:44;20.07;;;13.70;;
1380;SDS011;684;48.342;10.096;2023-04-06T05:36:11;20.10;;;13.13;;
1380;SDS011;684;48.342;10.096;2023-04-06T05:38:38;18.00;;;12.73;;
1380;SDS011;684;48.342;10.096;2023-04-06T05:41:06;16.93;;;12.27;;
1380;SDS011;684;48.342;10.096;2023-04-06T05:43:33;19.53;;;12.27;;
1380;SDS011;684;48.342;10.096;2023-04-06T05:45:59;18.03;;;14.90;;
1380;SDS011;684;48.342;10.096;2023-04-06T05:48:26;19.60;;;13.13;;
1380;SDS011;684;48.342;10.096;2023-04-06T05:50:53;18.60;;;12.00;;
1380;SDS011;684;48.342;10.096;2023-04-06T05:53:20;14.63;;;11.90;;
1380;SDS011;684;48.342;10.096;2023-04-06T05:55:47;16.10;;;12.33;;
1380;SDS011;684;48.342;10.096;2023-04-06T05:58:15;17.00;;;12.27;;
1380;SDS011;684;48.342;10.096;2023-04-06T06:00:43;14.80;;;11.33;;
1380;SDS011;684;48.342;10.096;2023-04-06T06:03:10;16.97;;;12.17;;
1380;SDS011;684;48.342;10.096;2023-04-06T06:05:38;24.53;;;12.53;;
1380;SDS011;684;48.342;10.096;2023-04-06T06:08:05;19.83;;;13.03;;
1380;SDS011;684;48.342;10.096;2023-04-06T06:10:32;17.20;;;12.00;;
1380;SDS011;684;48.342;10.096;2023-04-06T06:12:58;15.07;;;12.20;;
1380;SDS011;684;48.342;10.096;2023-04-06T06:15:27;16.70;;;11.30;;
1380;SDS011;684;48.342;10.096;2023-04-06T06:17:53;16.20;;;11.53;;
1380;SDS011;684;48.342;10.096;2023-04-06T06:20:20;16.63;;;12.57;;
1380;SDS011;684;48.342;10.096;2023-04-06T06:22:47;15.97;;;11.53;;
1380;SDS011;684;48.342;10.096;2023-04-06T06:25:14;16.00;;;12.50;;
1380;SDS011;684;48.342;10.096;2023-04-06T06:27:41;16.50;;;11.40;;
1380;SDS011;684;48.342;10.096;2023-04-06T06:30:08;18.07;;;12.50;;
1380;SDS011;684;48.342;10.096;2023-04-06T06:32:37;15.47;;;10.80;;
1380;SDS011;684;48.342;10.096;2023-04-06T06:35:04;17.23;;;11.70;;
1380;SDS011;684;48.342;10.096;2023-04-06T06:37:31;16.70;;;12.63;;
1380;SDS011;684;48.342;10.096;2023-04-06T06:39:57;15.23;;;11.40;;
1380;SDS011;684;48.342;10.096;2023-04-06T06:42:24;16.63;;;12.43;;
1380;SDS011;684;48.342;10.096;2023-04-06T06:44:51;15.87;;;12.20;;
1380;SDS011;684;48.342;10.096;2023-04-06T06:47:18;16.30;;;11.00;;
1380;SDS011;684;48.342;10.096;2023-04-06T06:49:46;14.70;;;11.60;;
1380;SDS011;684;48.342;10.096;2023-04-06T06:52:13;15.43;;;11.00;;
1380;SDS011;684;48.342;10.096;2023-04-06T06:54:40;14.53;;;10.93;;
1380;SDS011;684;48.342;10.096;2023-04-06T06:57:06;16.03;;;12.57;;
1380;SDS011;684;48.342;10.096;2023-04-06T06:59:33;14.07;;;11.20;;
1380;SDS011;684;48.342;10.096;2023-04-06T07:02:00;14.03;;;11.77;;
1380;SDS011;684;48.342;10.096;2023-04-06T07:04:27;14.47;;;11.40;;
1380;SDS011;684;48.342;10.096;2023-04-06T07:06:55;12.07;;;10.77;;
1380;SDS011;684;48.342;10.096;2023-04-06T07:09:22;12.90;;;11.30;;
1380;SDS011;684;48.342;10.096;2023-04-06T07:11:49;12.70;;;11.27;;
1380;SDS011;684;48.342;10.096;2023-04-06T07:14:15;12.73;;;11.43;;
1380;SDS011;684;48.342;10.096;2023-04-06T07:16:42;14.73;;;11.23;;
1380;SDS011;684;48.342;10.096;2023-04-06T07:19:12;14.10;;;12.60;;
1380;SDS011;684;48.342;10.096;2023-04-06T07:21:38;13.17;;;11.77;;
1380;SDS011;684;48.342;10.096;2023-04-06T07:24:07;13.97;;;12.47;;
1380;SDS011;684;48.342;10.096;2023-04-06T07:26:34;13.40;;;12.00;;
1380;SDS011;684;48.342;10.096;2023-04-06T07:29:00;13.50;;;12.10;;
1380;SDS011;684;48.342;10.096;2023-04-06T07:31:27;15.33;;;11.93;;
1380;SDS011;684;48.342;10.096;2023-04-06T07:33:54;14.37;;;11.90;;
1380;SDS011;684;48.342;10.096;2023-04-06T07:36:21;13.53;;;11.80;;
1380;SDS011;684;48.342;10.096;2023-04-06T07:38:47;14.00;;;12.50;;
1380;SDS011;684;48.342;10.096;2023-04-06T07:41:16;13.50;;;12.10;;
1380;SDS011;684;48.342;10.096;2023-04-06T07:43:43;13.37;;;11.97;;
1380;SDS011;684;48.342;10.096;2023-04-06T07:46:09;14.67;;;12.67;;
1380;SDS011;684;48.342;10.096;2023-04-06T07:48:36;12.33;;;11.13;;
1380;SDS011;684;48.342;10.096;2023-04-06T07:51:03;15.83;;;11.30;;
1380;SDS011;684;48.342;10.096;2023-04-06T07:53:31;12.93;;;11.80;;
1380;SDS011;684;48.342;10.096;2023-04-06T07:55:58;12.73;;;11.37;;
1380;SDS011;684;48.342;10.096;2023-04-06T07:58:26;12.20;;;10.60;;
1380;SDS011;684;48.342;10.096;2023-04-06T08:00:53;12.63;;;10.03;;
1380;SDS011;684;48.342;10.096;2023-04-06T08:03:23;11.77;;;10.57;;
1380;SDS011;684;48.342;10.096;2023-04-06T08:05:51;11.67;;;10.00;;
1380;SDS011;684;48.342;10.096;2023-04-06T08:08:18;11.63;;;10.43;;
1380;SDS011;684;48.342;10.096;2023-04-06T08:10:46;11.70;;;10.30;;
1380;SDS011;684;48.342;10.096;2023-04-06T08:13:13;11.07;;;9.87;;
1380;SDS011;684;48.342;10.096;2023-04-06T08:15:41;11.57;;;10.10;;
1380;SDS011;684;48.342;10.096;2023-04-06T08:18:08;12.50;;;11.40;;
1380;SDS011;684;48.342;10.096;2023-04-06T08:20:35;11.13;;;10.03;;
1380;SDS011;684;48.342;10.096;2023-04-06T08:23:02;11.40;;;10.20;;
1380;SDS011;684;48.342;10.096;2023-04-06T08:25:29;12.17;;;10.37;;
1380;SDS011;684;48.342;10.096;2023-04-06T08:27:55;12.13;;;10.93;;
1380;SDS011;684;48.342;10.096;2023-04-06T08:30:22;11.40;;;10.20;;
1380;SDS011;684;48.342;10.096;2023-04-06T08:32:50;12.33;;;11.13;;
1380;SDS011;684;48.342;10.096;2023-04-06T08:35:17;11.83;;;10.73;;
1380;SDS011;684;48.342;10.096;2023-04-06T08:37:44;12.00;;;10.80;;
1380;SDS011;684;48.342;10.096;2023-04-06T08:40:11;10.67;;;9.50;;
1380;SDS011;684;48.342;10.096;2023-04-06T08:42:39;13.17;;;10.50;;
1380;SDS011;684;48.342;10.096;2023-04-06T08:45:08;11.60;;;10.40;;
1380;SDS011;684;48.342;10.096;2023-04-06T08:47:36;12.30;;;11.10;;
1380;SDS011;684;48.342;10.096;2023-04-06T08:50:04;12.70;;;11.07;;
1380;SDS011;684;48.342;10.096;2023-04-06T08:52:33;11.10;;;10.00;;
1380;SDS011;684;48.342;10.096;2023-04-06T08:55:00;12.10;;;10.90;;
1380;SDS011;684;48.342;10.096;2023-04-06T08:57:27;11.93;;;10.73;;
1380;SDS011;684;48.342;10.096;2023-04-06T08:59:54;11.70;;;9.57;;
1380;SDS011;684;48.342;10.096;2023-04-06T09:02:22;11.20;;;9.97;;
1380;SDS011;684;48.342;10.096;2023-04-06T09:04:49;12.73;;;11.33;;
1380;SDS011;684;48.342;10.096;2023-04-06T09:07:20;11.43;;;10.23;;
1380;SDS011;684;48.342;10.096;2023-04-06T09:09:47;11.93;;;10.73;;
1380;SDS011;684;48.342;10.096;2023-04-06T09:12:24;12.17;;;10.93;;
1380;SDS011;684;48.342;10.096;2023-04-06T09:14:51;18.20;;;13.23;;
1380;SDS011;684;48.342;10.096;2023-04-06T09:17:21;13.13;;;11.60;;
1380;SDS011;684;48.342;10.096;2023-04-06T09:19:49;11.57;;;10.37;;
1380;SDS011;684;48.342;10.096;2023-04-06T09:22:16;14.10;;;12.50;;
1380;SDS011;684;48.342;10.096;2023-04-06T09:24:45;12.63;;;11.30;;
1380;SDS011;684;48.342;10.096;2023-04-06T09:27:13;12.77;;;11.53;;
1380;SDS011;684;48.342;10.096;2023-04-06T09:29:40;14.30;;;12.50;;
1380;SDS011;684;48.342;10.096;2023-04-06T09:32:08;12.83;;;11.53;;
1380;SDS011;684;48.342;10.096;2023-04-06T09:34:36;13.70;;;10.30;;
1380;SDS011;684;48.342;10.096;2023-04-06T09:37:11;12.17;;;11.00;;
1380;SDS011;684;48.342;10.096;2023-04-06T09:39:39;12.67;;;10.60;;
1380;SDS011;684;48.342;10.096;2023-04-06T09:42:07;12.50;;;11.00;;
1380;SDS011;684;48.342;10.096;2023-04-06T09:44:34;11.83;;;10.63;;
1380;SDS011;684;48.342;10.096;2023-04-06T09:47:01;12.57;;;11.27;;
1380;SDS011;684;48.342;10.096;2023-04-06T09:49:32;12.37;;;11.17;;
1380;SDS011;684;48.342;10.096;2023-04-06T09:52:00;11.90;;;10.70;;
1380;SDS011;684;48.342;10.096;2023-04-06T09:54:29;11.30;;;10.23;;
1380;SDS011;684;48.342;10.096;2023-04-06T09:56:59;12.43;;;11.03;;
1380;SDS011;684;48.342;10.096;2023-04-06T09:59:34;11.90;;;10.67;;
1380;SDS011;684;48.342;10.096;2023-04-06T10:02:12;10.50;;;9.50;;
1380;SDS011;684;48.342;10.096;2023-04-06T10:04:47;11.33;;;10.23;;
1380;SDS011;684;48.342;10.096;2023-04-06T10:07:20;9.73;;;8.73;;
1380;SDS011;684;48.342;10.096;2023-04-06T10:09:47;10.50;;;9.00;;
1380;SDS011;684;48.342;10.096;2023-04-06T10:12:15;11.83;;;9.63;;
1380;SDS011;684;48.342;10.096;2023-04-06T10:14:45;11.37;;;10.03;;
1380;SDS011;684;48.342;10.096;2023-04-06T10:17:12;9.53;;;8.63;;
1380;SDS011;684;48.342;10.096;2023-04-06T10:19:41;11.20;;;10.10;;
1380;SDS011;684;48.342;10.096;2023-04-06T10:22:18;9.00;;;8.10;;
1380;SDS011;684;48.342;10.096;2023-04-06T10:24:48;11.60;;;10.27;;
1380;SDS011;684;48.342;10.096;2023-04-06T10:27:15;10.10;;;9.10;;
1380;SDS011;684;48.342;10.096;2023-04-06T10:29:43;13.23;;;9.13;;
1380;SDS011;684;48.342;10.096;2023-04-06T10:32:13;10.60;;;8.80;;
1380;SDS011;684;48.342;10.096;2023-04-06T10:34:40;9.73;;;8.37;;
1380;SDS011;684;48.342;10.096;2023-04-06T10:37:10;10.37;;;9.00;;
1380;SDS011;684;48.342;10.096;2023-04-06T10:39:45;10.43;;;9.33;;
1380;SDS011;684;48.342;10.096;2023-04-06T10:42:13;9.70;;;8.70;;
1380;SDS011;684;48.342;10.096;2023-04-06T10:44:42;9.20;;;7.80;;
1380;SDS011;684;48.342;10.096;2023-04-06T10:47:16;10.83;;;6.70;;
1380;SDS011;684;48.342;10.096;2023-04-06T10:49:44;9.30;;;7.60;;
1380;SDS011;684;48.342;10.096;2023-04-06T10:52:11;7.47;;;6.20;;
1380;SDS011;684;48.342;10.096;2023-04-06T10:54:40;8.90;;;7.20;;
1380;SDS011;684;48.342;10.096;2023-04-06T10:57:08;8.63;;;7.07;;
1380;SDS011;684;48.342;10.096;2023-04-06T10:59:35;8.77;;;7.03;;
1380;SDS011;684;48.342;10.096;2023-04-06T11:02:02;8.80;;;6.20;;
1380;SDS011;684;48.342;10.096;2023-04-06T11:04:30;9.57;;;6.50;;
1380;SDS011;684;48.342;10.096;2023-04-06T11:06:57;10.47;;;6.63;;
1380;SDS011;684;48.342;10.096;2023-04-06T11:09:24;8.37;;;6.87;;
1380;SDS011;684;48.342;10.096;2023-04-06T11:11:52;8.57;;;6.73;;
1380;SDS011;684;48.342;10.096;2023-04-06T11:14:19;8.27;;;6.63;;
1380;SDS011;684;48.342;10.096;2023-04-06T11:16:46;7.90;;;6.90;;
1380;SDS011;684;48.342;10.096;2023-04-06T11:19:14;9.30;;;7.90;;
1380;SDS011;684;48.342;10.096;2023-04-06T11:21:44;10.63;;;7.77;;
1380;SDS011;684;48.342;10.096;2023-04-06T11:24:13;10.50;;;7.70;;
1380;SDS011;684;48.342;10.096;2023-04-06T11:26:41;10.90;;;9.00;;
1380;SDS011;684;48.342;10.096;2023-04-06T11:29:10;9.70;;;7.53;;
1380;SDS011;684;48.342;10.096;2023-04-06T11:31:38;11.43;;;9.10;;
1380;SDS011;684;48.342;10.096;2023-04-06T11:34:09;10.97;;;8.60;;
1380;SDS011;684;48.342;10.096;2023-04-06T11:36:42;14.63;;;8.37;;
1380;SDS011;684;48.342;10.096;2023-04-06T11:39:11;10.13;;;7.20;;
1380;SDS011;684;48.342;10.096;2023-04-06T11:41:38;11.67;;;7.23;;
1380;SDS011;684;48.342;10.096;2023-04-06T11:44:05;8.63;;;5.70;;
1380;SDS011;684;48.342;10.096;2023-04-06T11:46:32;12.53;;;7.00;;
1380;SDS011;684;48.342;10.096;2023-04-06T11:48:59;10.87;;;7.50;;
1380;SDS011;684;48.342;10.096;2023-04-06T11:51:27;11.77;;;8.07;;
1380;SDS011;684;48.342;10.096;2023-04-06T11:53:56;12.23;;;8.30;;
1380;SDS011;684;48.342;10.096;2023-04-06T11:56:23;17.70;;;9.80;;
1380;SDS011;684;48.342;10.096;2023-04-06T11:58:51;10.43;;;7.80;;
1380;SDS011;684;48.342;10.096;2023-04-06T12:01:18;11.57;;;8.70;;
1380;SDS011;684;48.342;10.096;2023-04-06T12:03:45;12.30;;;8.20;;
1380;SDS011;684;48.342;10.096;2023-04-06T12:06:12;11.70;;;7.90;;
1380;SDS011;684;48.342;10.096;2023-04-06T12:08:39;9.40;;;7.00;;
1380;SDS011;684;48.342;10.096;2023-04-06T12:11:07;9.70;;;6.70;;
1380;SDS011;684;48.342;10.096;2023-04-06T12:13:34;10.17;;;7.60;;
1380;SDS011;684;48.342;10.096;2023-04-06T12:16:01;12.23;;;7.93;;
1380;SDS011;684;48.342;10.096;2023-04-06T12:18:29;10.60;;;7.47;;
1380;SDS011;684;48.342;10.096;2023-04-06T12:20:55;10.50;;;7.17;;
1380;SDS011;684;48.342;10.096;2023-04-06T12:23:22;9.47;;;6.87;;
1380;SDS011;684;48.342;10.096;2023-04-06T12:25:49;9.77;;;7.10;;
1380;SDS011;684;48.342;10.096;2023-04-06T12:28:18;8.83;;;6.77;;
1380;SDS011;684;48.342;10.096;2023-04-06T12:30:48;9.57;;;6.90;;
1380;SDS011;684;48.342;10.096;2023-04-06T12:33:15;10.67;;;7.60;;
1380;SDS011;684;48.342;10.096;2023-04-06T12:35:41;12.90;;;8.60;;
1380;SDS011;684;48.342;10.096;2023-04-06T12:38:08;10.50;;;7.10;;
1380;SDS011;684;48.342;10.096;2023-04-06T12:40:36;9.97;;;7.37;;
1380;SDS011;684;48.342;10.096;2023-04-06T12:43:04;8.87;;;6.80;;
1380;SDS011;684;48.342;10.096;2023-04-06T12:45:32;11.23;;;7.23;;
1380;SDS011;684;48.342;10.096;2023-04-06T12:47:59;9.30;;;6.90;;
1380;SDS011;684;48.342;10.096;2023-04-06T12:50:26;9.30;;;6.90;;
1380;SDS011;684;48.342;10.096;2023-04-06T12:52:52;9.97;;;6.90;;
1380;SDS011;684;48.342;10.096;2023-04-06T12:55:19;9.40;;;6.30;;
1380;SDS011;684;48.342;10.096;2023-04-06T12:57:46;8.87;;;6.60;;
1380;SDS011;684;48.342;10.096;2023-04-06T13:00:14;11.40;;;7.33;;
1380;SDS011;684;48.342;10.096;2023-04-06T13:02:42;9.80;;;7.07;;
1380;SDS011;684;48.342;10.096;2023-04-06T13:05:12;9.60;;;6.67;;
1380;SDS011;684;48.342;10.096;2023-04-06T13:07:39;12.53;;;6.90;;
1380;SDS011;684;48.342;10.096;2023-04-06T13:10:06;8.90;;;6.70;;
1380;SDS011;684;48.342;10.096;2023-04-06T13:12:34;8.93;;;6.73;;
1380;SDS011;684;48.342;10.096;2023-04-06T13:15:01;8.50;;;5.80;;
1380;SDS011;684;48.342;10.096;2023-04-06T13:17:28;8.97;;;6.20;;
1380;SDS011;684;48.342;10.096;2023-04-06T13:19:56;9.30;;;6.13;;
1380;SDS011;684;48.342;10.096;2023-04-06T13:22:23;10.13;;;6.90;;
1380;SDS011;684;48.342;10.096;2023-04-06T13:24:50;9.63;;;6.47;;
1380;SDS011;684;48.342;10.096;2023-04-06T13:27:17;7.40;;;5.70;;
1380;SDS011;684;48.342;10.096;2023-04-06T13:29:44;11.47;;;6.37;;
1380;SDS011;684;48.342;10.096;2023-04-06T13:32:11;10.30;;;6.73;;
1380;SDS011;684;48.342;10.096;2023-04-06T13:34:38;9.77;;;7.27;;
1380;SDS011;684;48.342;10.096;2023-04-06T13:37:06;8.40;;;6.17;;
1380;SDS011;684;48.342;10.096;2023-04-06T13:39:33;12.00;;;8.03;;
1380;SDS011;684;48.342;10.096;2023-04-06T13:42:00;11.93;;;7.97;;
1380;SDS011;684;48.342;10.096;2023-04-06T13:44:27;8.90;;;6.67;;
1380;SDS011;684;48.342;10.096;2023-04-06T13:46:55;11.53;;;6.50;;
1380;SDS011;684;48.342;10.096;2023-04-06T13:49:23;9.13;;;7.50;;
1380;SDS011;684;48.342;10.096;2023-04-06T13:51:50;9.57;;;7.10;;
1380;SDS011;684;48.342;10.096;2023-04-06T13:54:18;8.10;;;6.10;;
1380;SDS011;684;48.342;10.096;2023-04-06T13:56:45;12.47;;;7.20;;
1380;SDS011;684;48.342;10.096;2023-04-06T13:59:12;9.60;;;6.70;;
1380;SDS011;684;48.342;10.096;2023-04-06T14:01:39;9.80;;;6.50;;
1380;SDS011;684;48.342;10.096;2023-04-06T14:04:06;9.73;;;6.63;;
1380;SDS011;684;48.342;10.096;2023-04-06T14:06:33;8.60;;;6.27;;
1380;SDS011;684;48.342;10.096;2023-04-06T14:08:59;8.33;;;6.77;;
1380;SDS011;684;48.342;10.096;2023-04-06T14:11:28;10.70;;;7.60;;
1380;SDS011;684;48.342;10.096;2023-04-06T14:13:55;11.43;;;7.80;;
1380;SDS011;684;48.342;10.096;2023-04-06T14:16:23;11.77;;;6.70;;
1380;SDS011;684;48.342;10.096;2023-04-06T14:18:50;10.70;;;6.97;;
1380;SDS011;684;48.342;10.096;2023-04-06T14:21:17;10.87;;;6.77;;
1380;SDS011;684;48.342;10.096;2023-04-06T14:23:44;12.00;;;6.73;;
1380;SDS011;684;48.342;10.096;2023-04-06T14:26:12;9.83;;;6.43;;
1380;SDS011;684;48.342;10.096;2023-04-06T14:28:41;11.43;;;6.90;;
1380;SDS011;684;48.342;10.096;2023-04-06T14:31:11;9.30;;;7.17;;
1380;SDS011;684;48.342;10.096;2023-04-06T14:33:40;11.93;;;8.00;;
1380;SDS011;684;48.342;10.096;2023-04-06T14:36:07;10.07;;;6.80;;
1380;SDS011;684;48.342;10.096;2023-04-06T14:38:34;9.67;;;7.00;;
1380;SDS011;684;48.342;10.096;2023-04-06T14:41:01;8.40;;;6.60;;
1380;SDS011;684;48.342;10.096;2023-04-06T14:43:28;9.40;;;7.20;;
1380;SDS011;684;48.342;10.096;2023-04-06T14:46:00;12.70;;;7.47;;
1380;SDS011;684;48.342;10.096;2023-04-06T14:48:27;9.50;;;6.73;;
1380;SDS011;684;48.342;10.096;2023-04-06T14:50:54;12.13;;;7.20;;
1380;SDS011;684;48.342;10.096;2023-04-06T14:53:21;9.63;;;7.13;;
1380;SDS011;684;48.342;10.096;2023-04-06T14:55:49;8.93;;;6.60;;